• Join FlightAware (Why Join?)
  • Login
  • US Flag 
12:25PM EST


 

Airport Tracker/Info


-or-


 

Live Flight TrackerFlight Track Log ✈ USC105 ✈ 02-May-2013 ✈ KLCK - KBKL

Flight Track Log - Related Links

Times and Time Zones

All times are in EDT time to prevent confusion due to time zone crossing. See the USC105 flight status page for this flight to view local times or setup timezone preferences in your user account.

Time Position Orientation Groundspeed Altitude Reporting Facility
EDT Latitude Longitude Course Direction KTS MPH feet Rate Location/Type
10:04PM 39.8058 -82.9419 242° Southwest 122 140 900  Level Indianapolis Center
10:05PM 39.7908 -82.9783 242° Southwest 121 139 2,100 974 Climbing Indianapolis Center
10:06PM 39.8219 -82.9850 351° North 136 157 2,800 821 Climbing Indianapolis Center
10:07PM 39.8600 -82.9867 358° North 135 155 3,700 885 Climbing Indianapolis Center
10:08PM 39.8989 -82.9725 16° North 139 160 4,600 829 Climbing Indianapolis Center
10:09PM 39.9400 -82.9611 12° North 147 169 5,400 842 Climbing Indianapolis Center
10:10PM 39.9714 -82.9367 31° Northeast 152 175 6,200 849 Climbing Indianapolis Center
10:11PM 40.0022 -82.9128 31° Northeast 151 174 6,900 686 Climbing Indianapolis Center
10:11PM 40.0131 -82.9042 31° Northeast 155 178 7,000 90 Climbing Indianapolis Center
10:12PM 40.0533 -82.8725 31° Northeast 183 211 7,000  Level Indianapolis Center
10:13PM 40.0975 -82.8367 32° Northeast 190 219 7,000  Level Indianapolis Center
10:14PM 40.1453 -82.7969 32° Northeast 188 216 7,000  Level Indianapolis Center
10:15PM 40.1881 -82.7622 32° Northeast 188 216 7,000  Level Indianapolis Center
10:16PM 40.2353 -82.7256 31° Northeast 188 216 7,000  Level Indianapolis Center
10:17PM 40.2764 -82.6956 29° Northeast 195 224 7,000  Level Indianapolis Center
10:18PM 40.3206 -82.6594 32° Northeast 201 231 7,000  Level Indianapolis Center
10:18PM 40.3364 -82.6467 32° Northeast 198 228 7,000  Level Indianapolis Center
10:19PM 40.3778 -82.6139 31° Northeast 198 228 7,000  Level Indianapolis Center
10:20PM 40.4242 -82.5753 32° Northeast 195 224 7,000  Level Indianapolis Center
10:21PM 40.4764 -82.5331 32° Northeast 196 226 7,000  Level Indianapolis Center
10:22PM 40.5239 -82.4958 31° Northeast 197 227 7,000  Level Indianapolis Center
10:23PM 40.5717 -82.4594 30° Northeast 196 226 7,000  Level Indianapolis Center
10:24PM 40.6178 -82.4203 33° Northeast 196 226 7,000  Level Indianapolis Center
10:25PM 40.6636 -82.3817 33° Northeast 195 224 7,000  Level Indianapolis Center
10:26PM 40.6975 -82.3578 28° Northeast 199 229 7,000  Level Cleveland Center
10:28PM 40.7756 -82.2967 31° Northeast 201 231 7,000  Level Cleveland Center
10:28PM 40.8178 -82.2594 34° Northeast 202 232 7,000  Level Cleveland Center
10:29PM 40.8642 -82.2222 31° Northeast 201 231 7,000  Level Cleveland Center
10:30PM 40.9003 -82.1764 44° Northeast 195 224 7,000  Level Cleveland Center
10:31PM 40.9342 -82.1278 47° Northeast 195 224 7,000  Level Cleveland Center
10:32PM 40.9703 -82.0792 45° Northeast 200 230 7,000  Level Cleveland Center
10:33PM 41.0044 -82.0247 50° Northeast 199 229 7,000  Level Cleveland Center
10:34PM 41.0342 -81.9842 46° Northeast 198 228 7,000  Level Cleveland Center
10:35PM 41.0808 -81.9247 44° Northeast 200 230 7,000 -331 Level Cleveland Center
10:36PM 41.1211 -81.8675 47° Northeast 216 249 6,300 -828 Descending Cleveland Center
10:37PM 41.1569 -81.8103 50° Northeast 220 253 5,400 -843 Descending Cleveland Center
10:38PM 41.1994 -81.7478 48° Northeast 208 239 4,600 -793 Descending Cleveland Center
10:39PM 41.2394 -81.7014 41° Northeast 205 236 3,800 -881 Descending Cleveland Center
10:40PM 41.2794 -81.6553 41° Northeast 209 241 3,000 -417 Descending Cleveland Center
10:41PM 41.3258 -81.6172 32° Northeast 188 216 3,000  Level Cleveland Center
10:42PM 41.3781 -81.5903 21° North 194 223 3,000  Level Cleveland Center
10:43PM 41.4283 -81.5828 North 184 212 3,000 -446 Level Cleveland Center
10:44PM 41.4778 -81.6225 329° Northwest 210 242 2,100 -694 Descending Cleveland Center
10:45PM 41.5233 -81.6675 324° Northwest 200 230 1,600 -500 Descending Cleveland Center